sensor_id;sensor_type;location;lat;lon;timestamp;P1;durP1;ratioP1;P2;durP2;ratioP2
9799;SDS011;4939;52.00085300;4.17406100;2023-06-14T00:01:43;5.93;;;3.00;;
9799;SDS011;4939;52.00085300;4.17406100;2023-06-14T00:04:11;6.38;;;2.88;;
9799;SDS011;4939;52.00085300;4.17406100;2023-06-14T00:06:38;8.02;;;2.67;;
9799;SDS011;4939;52.00085300;4.17406100;2023-06-14T00:09:04;6.97;;;3.10;;
9799;SDS011;4939;52.00085300;4.17406100;2023-06-14T00:11:30;6.88;;;2.90;;
9799;SDS011;4939;52.00085300;4.17406100;2023-06-14T00:13:57;8.80;;;3.03;;
9799;SDS011;4939;52.00085300;4.17406100;2023-06-14T00:16:22;4.55;;;2.90;;
9799;SDS011;4939;52.00085300;4.17406100;2023-06-14T00:18:48;5.03;;;3.00;;
9799;SDS011;4939;52.00085300;4.17406100;2023-06-14T00:21:14;5.15;;;2.90;;
9799;SDS011;4939;52.00085300;4.17406100;2023-06-14T00:23:40;9.52;;;3.17;;
9799;SDS011;4939;52.00085300;4.17406100;2023-06-14T00:26:05;5.70;;;2.92;;
9799;SDS011;4939;52.00085300;4.17406100;2023-06-14T00:28:31;10.02;;;3.65;;
9799;SDS011;4939;52.00085300;4.17406100;2023-06-14T00:30:57;11.98;;;3.28;;
9799;SDS011;4939;52.00085300;4.17406100;2023-06-14T00:33:22;4.97;;;3.10;;
9799;SDS011;4939;52.00085300;4.17406100;2023-06-14T00:35:49;10.18;;;3.40;;
9799;SDS011;4939;52.00085300;4.17406100;2023-06-14T00:38:15;7.45;;;3.40;;
9799;SDS011;4939;52.00085300;4.17406100;2023-06-14T00:40:41;6.35;;;3.30;;
9799;SDS011;4939;52.00085300;4.17406100;2023-06-14T00:43:07;6.07;;;3.40;;
9799;SDS011;4939;52.00085300;4.17406100;2023-06-14T00:45:32;6.07;;;3.22;;
9799;SDS011;4939;52.00085300;4.17406100;2023-06-14T00:48:01;6.32;;;3.05;;
9799;SDS011;4939;52.00085300;4.17406100;2023-06-14T00:50:28;5.72;;;3.00;;
9799;SDS011;4939;52.00085300;4.17406100;2023-06-14T00:52:56;8.55;;;3.47;;
9799;SDS011;4939;52.00085300;4.17406100;2023-06-14T00:55:22;7.90;;;3.35;;
9799;SDS011;4939;52.00085300;4.17406100;2023-06-14T00:57:48;7.25;;;3.38;;
9799;SDS011;4939;52.00085300;4.17406100;2023-06-14T01:00:14;9.52;;;3.10;;
9799;SDS011;4939;52.00085300;4.17406100;2023-06-14T01:02:40;7.07;;;3.38;;
9799;SDS011;4939;52.00085300;4.17406100;2023-06-14T01:05:06;6.30;;;3.30;;
9799;SDS011;4939;52.00085300;4.17406100;2023-06-14T01:07:41;8.77;;;3.63;;
9799;SDS011;4939;52.00085300;4.17406100;2023-06-14T01:11:22;6.43;;;3.17;;
9799;SDS011;4939;52.00085300;4.17406100;2023-06-14T01:15:54;5.40;;;3.40;;
9799;SDS011;4939;52.00085300;4.17406100;2023-06-14T01:18:21;15.80;;;3.50;;
9799;SDS011;4939;52.00085300;4.17406100;2023-06-14T01:20:49;6.47;;;3.40;;
9799;SDS011;4939;52.00085300;4.17406100;2023-06-14T01:23:19;9.18;;;3.30;;
9799;SDS011;4939;52.00085300;4.17406100;2023-06-14T01:25:46;7.32;;;2.85;;
9799;SDS011;4939;52.00085300;4.17406100;2023-06-14T01:28:13;9.45;;;3.15;;
9799;SDS011;4939;52.00085300;4.17406100;2023-06-14T01:30:42;10.18;;;3.20;;
9799;SDS011;4939;52.00085300;4.17406100;2023-06-14T01:33:16;8.18;;;3.22;;
9799;SDS011;4939;52.00085300;4.17406100;2023-06-14T01:35:45;6.43;;;3.22;;
9799;SDS011;4939;52.00085300;4.17406100;2023-06-14T01:38:15;8.50;;;3.28;;
9799;SDS011;4939;52.00085300;4.17406100;2023-06-14T01:40:42;11.23;;;2.97;;
9799;SDS011;4939;52.00085300;4.17406100;2023-06-14T01:43:10;5.75;;;3.28;;
9799;SDS011;4939;52.00085300;4.17406100;2023-06-14T01:45:38;6.47;;;3.28;;
9799;SDS011;4939;52.00085300;4.17406100;2023-06-14T01:48:06;5.70;;;3.10;;
9799;SDS011;4939;52.00085300;4.17406100;2023-06-14T01:50:31;7.82;;;3.33;;
9799;SDS011;4939;52.00085300;4.17406100;2023-06-14T01:52:57;6.22;;;3.05;;
9799;SDS011;4939;52.00085300;4.17406100;2023-06-14T01:55:23;6.20;;;3.10;;
9799;SDS011;4939;52.00085300;4.17406100;2023-06-14T01:57:52;5.55;;;3.15;;
9799;SDS011;4939;52.00085300;4.17406100;2023-06-14T02:00:18;6.75;;;3.00;;
9799;SDS011;4939;52.00085300;4.17406100;2023-06-14T02:02:45;5.30;;;3.20;;
9799;SDS011;4939;52.00085300;4.17406100;2023-06-14T02:05:11;7.55;;;3.20;;
9799;SDS011;4939;52.00085300;4.17406100;2023-06-14T02:07:37;7.43;;;3.20;;
9799;SDS011;4939;52.00085300;4.17406100;2023-06-14T02:10:03;15.25;;;3.10;;
9799;SDS011;4939;52.00085300;4.17406100;2023-06-14T02:12:31;7.38;;;3.08;;
9799;SDS011;4939;52.00085300;4.17406100;2023-06-14T02:14:56;9.45;;;3.20;;
9799;SDS011;4939;52.00085300;4.17406100;2023-06-14T02:17:43;9.25;;;3.20;;
9799;SDS011;4939;52.00085300;4.17406100;2023-06-14T02:20:10;8.82;;;3.10;;
9799;SDS011;4939;52.00085300;4.17406100;2023-06-14T02:22:36;6.53;;;3.03;;
9799;SDS011;4939;52.00085300;4.17406100;2023-06-14T02:25:02;6.22;;;3.03;;
9799;SDS011;4939;52.00085300;4.17406100;2023-06-14T02:27:28;7.75;;;3.40;;
9799;SDS011;4939;52.00085300;4.17406100;2023-06-14T02:29:54;9.07;;;3.47;;
9799;SDS011;4939;52.00085300;4.17406100;2023-06-14T02:32:19;12.13;;;3.83;;
9799;SDS011;4939;52.00085300;4.17406100;2023-06-14T02:34:45;8.10;;;3.53;;
9799;SDS011;4939;52.00085300;4.17406100;2023-06-14T02:37:14;7.72;;;3.00;;
9799;SDS011;4939;52.00085300;4.17406100;2023-06-14T02:39:41;6.47;;;3.22;;
9799;SDS011;4939;52.00085300;4.17406100;2023-06-14T02:42:07;6.00;;;3.10;;
9799;SDS011;4939;52.00085300;4.17406100;2023-06-14T02:44:32;8.00;;;3.22;;
9799;SDS011;4939;52.00085300;4.17406100;2023-06-14T02:46:58;7.00;;;3.15;;
9799;SDS011;4939;52.00085300;4.17406100;2023-06-14T02:49:26;9.35;;;3.35;;
9799;SDS011;4939;52.00085300;4.17406100;2023-06-14T02:51:51;6.53;;;3.15;;
9799;SDS011;4939;52.00085300;4.17406100;2023-06-14T02:54:17;8.35;;;3.30;;
9799;SDS011;4939;52.00085300;4.17406100;2023-06-14T02:56:43;9.73;;;3.10;;
9799;SDS011;4939;52.00085300;4.17406100;2023-06-14T02:59:09;5.60;;;2.90;;
9799;SDS011;4939;52.00085300;4.17406100;2023-06-14T03:01:35;8.77;;;2.80;;
9799;SDS011;4939;52.00085300;4.17406100;2023-06-14T03:04:06;10.70;;;3.33;;
9799;SDS011;4939;52.00085300;4.17406100;2023-06-14T03:06:32;6.20;;;3.10;;
9799;SDS011;4939;52.00085300;4.17406100;2023-06-14T03:08:58;7.93;;;3.40;;
9799;SDS011;4939;52.00085300;4.17406100;2023-06-14T03:11:26;6.32;;;3.22;;
9799;SDS011;4939;52.00085300;4.17406100;2023-06-14T03:13:52;11.10;;;3.22;;
9799;SDS011;4939;52.00085300;4.17406100;2023-06-14T03:16:19;6.65;;;3.10;;
9799;SDS011;4939;52.00085300;4.17406100;2023-06-14T03:18:47;6.60;;;2.97;;
9799;SDS011;4939;52.00085300;4.17406100;2023-06-14T03:21:16;8.25;;;3.30;;
9799;SDS011;4939;52.00085300;4.17406100;2023-06-14T03:23:43;5.13;;;3.03;;
9799;SDS011;4939;52.00085300;4.17406100;2023-06-14T03:26:09;6.85;;;2.92;;
9799;SDS011;4939;52.00085300;4.17406100;2023-06-14T03:28:40;9.18;;;3.28;;
9799;SDS011;4939;52.00085300;4.17406100;2023-06-14T03:31:06;6.85;;;3.15;;
9799;SDS011;4939;52.00085300;4.17406100;2023-06-14T03:33:34;8.27;;;3.25;;
9799;SDS011;4939;52.00085300;4.17406100;2023-06-14T03:35:59;9.50;;;3.15;;
9799;SDS011;4939;52.00085300;4.17406100;2023-06-14T03:38:25;6.25;;;3.10;;
9799;SDS011;4939;52.00085300;4.17406100;2023-06-14T03:40:51;8.57;;;3.20;;
9799;SDS011;4939;52.00085300;4.17406100;2023-06-14T03:43:16;8.63;;;2.97;;
9799;SDS011;4939;52.00085300;4.17406100;2023-06-14T03:45:42;8.30;;;3.20;;
9799;SDS011;4939;52.00085300;4.17406100;2023-06-14T03:48:08;5.35;;;2.95;;
9799;SDS011;4939;52.00085300;4.17406100;2023-06-14T03:50:34;6.38;;;3.08;;
9799;SDS011;4939;52.00085300;4.17406100;2023-06-14T03:53:03;10.63;;;2.92;;
9799;SDS011;4939;52.00085300;4.17406100;2023-06-14T03:55:31;10.75;;;3.20;;
9799;SDS011;4939;52.00085300;4.17406100;2023-06-14T03:57:58;10.88;;;2.90;;
9799;SDS011;4939;52.00085300;4.17406100;2023-06-14T04:00:24;7.55;;;2.97;;
9799;SDS011;4939;52.00085300;4.17406100;2023-06-14T04:02:50;5.82;;;3.10;;
9799;SDS011;4939;52.00085300;4.17406100;2023-06-14T04:05:15;5.38;;;3.08;;
9799;SDS011;4939;52.00085300;4.17406100;2023-06-14T04:07:44;5.72;;;2.80;;
9799;SDS011;4939;52.00085300;4.17406100;2023-06-14T04:10:11;8.60;;;3.10;;
9799;SDS011;4939;52.00085300;4.17406100;2023-06-14T04:12:38;7.15;;;2.90;;
9799;SDS011;4939;52.00085300;4.17406100;2023-06-14T04:15:03;5.45;;;3.00;;
9799;SDS011;4939;52.00085300;4.17406100;2023-06-14T04:17:31;8.38;;;3.00;;
9799;SDS011;4939;52.00085300;4.17406100;2023-06-14T04:20:00;8.25;;;3.08;;
9799;SDS011;4939;52.00085300;4.17406100;2023-06-14T04:22:27;3.92;;;2.70;;
9799;SDS011;4939;52.00085300;4.17406100;2023-06-14T04:24:54;7.82;;;3.00;;
9799;SDS011;4939;52.00085300;4.17406100;2023-06-14T04:27:23;6.05;;;3.22;;
9799;SDS011;4939;52.00085300;4.17406100;2023-06-14T04:29:52;6.63;;;2.65;;
9799;SDS011;4939;52.00085300;4.17406100;2023-06-14T04:32:23;6.70;;;3.20;;
9799;SDS011;4939;52.00085300;4.17406100;2023-06-14T04:34:55;5.07;;;2.90;;
9799;SDS011;4939;52.00085300;4.17406100;2023-06-14T04:37:21;7.13;;;3.05;;
9799;SDS011;4939;52.00085300;4.17406100;2023-06-14T04:39:50;8.48;;;3.15;;
9799;SDS011;4939;52.00085300;4.17406100;2023-06-14T04:42:16;6.40;;;2.85;;
9799;SDS011;4939;52.00085300;4.17406100;2023-06-14T04:44:45;6.70;;;2.85;;
9799;SDS011;4939;52.00085300;4.17406100;2023-06-14T04:47:15;5.95;;;3.10;;
9799;SDS011;4939;52.00085300;4.17406100;2023-06-14T04:49:41;5.38;;;2.75;;
9799;SDS011;4939;52.00085300;4.17406100;2023-06-14T04:52:07;6.43;;;2.95;;
9799;SDS011;4939;52.00085300;4.17406100;2023-06-14T04:54:41;6.18;;;2.75;;
9799;SDS011;4939;52.00085300;4.17406100;2023-06-14T04:57:10;5.68;;;2.55;;
9799;SDS011;4939;52.00085300;4.17406100;2023-06-14T04:59:45;6.20;;;2.90;;
9799;SDS011;4939;52.00085300;4.17406100;2023-06-14T05:02:11;10.73;;;2.90;;
9799;SDS011;4939;52.00085300;4.17406100;2023-06-14T05:04:37;5.72;;;2.72;;
9799;SDS011;4939;52.00085300;4.17406100;2023-06-14T05:07:07;6.00;;;2.97;;
9799;SDS011;4939;52.00085300;4.17406100;2023-06-14T05:09:34;6.75;;;2.90;;
9799;SDS011;4939;52.00085300;4.17406100;2023-06-14T05:12:00;14.23;;;2.80;;
9799;SDS011;4939;52.00085300;4.17406100;2023-06-14T05:14:27;5.95;;;2.70;;
9799;SDS011;4939;52.00085300;4.17406100;2023-06-14T05:16:52;5.18;;;2.90;;
9799;SDS011;4939;52.00085300;4.17406100;2023-06-14T05:19:18;11.75;;;3.20;;
9799;SDS011;4939;52.00085300;4.17406100;2023-06-14T05:21:46;8.75;;;3.00;;
9799;SDS011;4939;52.00085300;4.17406100;2023-06-14T05:24:12;6.55;;;2.85;;
9799;SDS011;4939;52.00085300;4.17406100;2023-06-14T05:26:38;9.68;;;3.10;;
9799;SDS011;4939;52.00085300;4.17406100;2023-06-14T05:29:04;6.80;;;2.80;;
9799;SDS011;4939;52.00085300;4.17406100;2023-06-14T05:31:29;11.07;;;3.03;;
9799;SDS011;4939;52.00085300;4.17406100;2023-06-14T05:33:56;5.50;;;2.70;;
9799;SDS011;4939;52.00085300;4.17406100;2023-06-14T05:36:22;7.10;;;3.00;;
9799;SDS011;4939;52.00085300;4.17406100;2023-06-14T05:38:48;6.03;;;3.00;;
9799;SDS011;4939;52.00085300;4.17406100;2023-06-14T05:41:13;7.82;;;2.97;;
9799;SDS011;4939;52.00085300;4.17406100;2023-06-14T05:43:39;5.85;;;2.85;;
9799;SDS011;4939;52.00085300;4.17406100;2023-06-14T05:46:05;10.65;;;3.17;;
9799;SDS011;4939;52.00085300;4.17406100;2023-06-14T05:48:31;9.93;;;3.40;;
9799;SDS011;4939;52.00085300;4.17406100;2023-06-14T05:50:56;6.47;;;2.90;;
9799;SDS011;4939;52.00085300;4.17406100;2023-06-14T05:53:22;9.30;;;2.85;;
9799;SDS011;4939;52.00085300;4.17406100;2023-06-14T05:55:49;9.38;;;2.88;;
9799;SDS011;4939;52.00085300;4.17406100;2023-06-14T05:58:18;7.10;;;2.72;;
9799;SDS011;4939;52.00085300;4.17406100;2023-06-14T06:00:44;8.98;;;3.15;;
9799;SDS011;4939;52.00085300;4.17406100;2023-06-14T06:03:11;12.38;;;3.20;;
9799;SDS011;4939;52.00085300;4.17406100;2023-06-14T06:05:38;7.15;;;3.13;;
9799;SDS011;4939;52.00085300;4.17406100;2023-06-14T06:08:04;6.32;;;2.97;;
9799;SDS011;4939;52.00085300;4.17406100;2023-06-14T06:10:31;6.57;;;2.78;;
9799;SDS011;4939;52.00085300;4.17406100;2023-06-14T06:12:57;6.45;;;3.00;;
9799;SDS011;4939;52.00085300;4.17406100;2023-06-14T06:15:22;7.57;;;3.08;;
9799;SDS011;4939;52.00085300;4.17406100;2023-06-14T06:17:48;7.93;;;3.03;;
9799;SDS011;4939;52.00085300;4.17406100;2023-06-14T06:20:14;5.90;;;2.90;;
9799;SDS011;4939;52.00085300;4.17406100;2023-06-14T06:22:40;6.38;;;3.55;;
9799;SDS011;4939;52.00085300;4.17406100;2023-06-14T06:25:05;7.93;;;3.00;;
9799;SDS011;4939;52.00085300;4.17406100;2023-06-14T06:27:32;5.93;;;2.97;;
9799;SDS011;4939;52.00085300;4.17406100;2023-06-14T06:29:58;10.90;;;2.72;;
9799;SDS011;4939;52.00085300;4.17406100;2023-06-14T06:32:23;5.55;;;2.80;;
9799;SDS011;4939;52.00085300;4.17406100;2023-06-14T06:34:50;8.00;;;2.92;;
9799;SDS011;4939;52.00085300;4.17406100;2023-06-14T06:37:16;9.35;;;3.20;;
9799;SDS011;4939;52.00085300;4.17406100;2023-06-14T06:39:42;6.75;;;2.90;;
9799;SDS011;4939;52.00085300;4.17406100;2023-06-14T06:42:11;6.32;;;2.97;;
9799;SDS011;4939;52.00085300;4.17406100;2023-06-14T06:44:37;6.93;;;2.90;;
9799;SDS011;4939;52.00085300;4.17406100;2023-06-14T06:47:03;5.45;;;3.10;;
9799;SDS011;4939;52.00085300;4.17406100;2023-06-14T06:49:29;7.35;;;2.83;;
9799;SDS011;4939;52.00085300;4.17406100;2023-06-14T06:52:05;9.90;;;3.05;;
9799;SDS011;4939;52.00085300;4.17406100;2023-06-14T06:54:32;7.00;;;3.33;;
9799;SDS011;4939;52.00085300;4.17406100;2023-06-14T06:56:58;6.32;;;3.13;;
9799;SDS011;4939;52.00085300;4.17406100;2023-06-14T06:59:25;7.10;;;3.00;;
9799;SDS011;4939;52.00085300;4.17406100;2023-06-14T07:01:50;6.47;;;3.28;;
9799;SDS011;4939;52.00085300;4.17406100;2023-06-14T07:04:16;6.43;;;3.25;;
9799;SDS011;4939;52.00085300;4.17406100;2023-06-14T07:06:42;7.70;;;3.22;;
9799;SDS011;4939;52.00085300;4.17406100;2023-06-14T07:09:08;9.73;;;3.40;;
9799;SDS011;4939;52.00085300;4.17406100;2023-06-14T07:11:38;7.43;;;3.30;;
9799;SDS011;4939;52.00085300;4.17406100;2023-06-14T07:14:04;8.40;;;2.90;;
9799;SDS011;4939;52.00085300;4.17406100;2023-06-14T07:16:30;6.18;;;3.17;;
9799;SDS011;4939;52.00085300;4.17406100;2023-06-14T07:18:56;6.10;;;2.95;;
9799;SDS011;4939;52.00085300;4.17406100;2023-06-14T07:21:22;6.95;;;3.20;;
9799;SDS011;4939;52.00085300;4.17406100;2023-06-14T07:23:47;5.53;;;3.28;;
9799;SDS011;4939;52.00085300;4.17406100;2023-06-14T07:26:13;7.75;;;3.38;;
9799;SDS011;4939;52.00085300;4.17406100;2023-06-14T07:28:38;8.57;;;3.38;;
9799;SDS011;4939;52.00085300;4.17406100;2023-06-14T07:31:04;7.15;;;3.20;;
9799;SDS011;4939;52.00085300;4.17406100;2023-06-14T07:33:30;5.65;;;3.10;;
9799;SDS011;4939;52.00085300;4.17406100;2023-06-14T07:35:55;10.88;;;3.30;;
9799;SDS011;4939;52.00085300;4.17406100;2023-06-14T07:38:21;8.30;;;3.10;;
9799;SDS011;4939;52.00085300;4.17406100;2023-06-14T07:40:47;6.63;;;3.30;;
9799;SDS011;4939;52.00085300;4.17406100;2023-06-14T07:43:12;7.68;;;3.45;;
9799;SDS011;4939;52.00085300;4.17406100;2023-06-14T07:45:38;8.32;;;3.50;;
9799;SDS011;4939;52.00085300;4.17406100;2023-06-14T07:48:03;8.30;;;3.53;;
9799;SDS011;4939;52.00085300;4.17406100;2023-06-14T07:50:29;8.25;;;3.55;;
9799;SDS011;4939;52.00085300;4.17406100;2023-06-14T07:52:55;10.35;;;3.40;;
9799;SDS011;4939;52.00085300;4.17406100;2023-06-14T07:55:21;8.63;;;3.30;;
9799;SDS011;4939;52.00085300;4.17406100;2023-06-14T07:57:46;6.57;;;3.60;;
9799;SDS011;4939;52.00085300;4.17406100;2023-06-14T08:00:12;7.10;;;3.28;;
9799;SDS011;4939;52.00085300;4.17406100;2023-06-14T08:02:41;6.63;;;3.38;;
9799;SDS011;4939;52.00085300;4.17406100;2023-06-14T08:05:08;6.72;;;3.65;;
9799;SDS011;4939;52.00085300;4.17406100;2023-06-14T08:07:35;6.47;;;3.30;;
9799;SDS011;4939;52.00085300;4.17406100;2023-06-14T08:10:00;6.72;;;3.53;;
9799;SDS011;4939;52.00085300;4.17406100;2023-06-14T08:12:26;8.55;;;3.45;;
9799;SDS011;4939;52.00085300;4.17406100;2023-06-14T08:14:52;9.15;;;3.67;;
9799;SDS011;4939;52.00085300;4.17406100;2023-06-14T08:17:17;7.45;;;3.70;;
9799;SDS011;4939;52.00085300;4.17406100;2023-06-14T08:19:43;6.68;;;3.70;;
9799;SDS011;4939;52.00085300;4.17406100;2023-06-14T08:22:09;8.02;;;3.30;;
9799;SDS011;4939;52.00085300;4.17406100;2023-06-14T08:24:36;6.97;;;3.92;;
9799;SDS011;4939;52.00085300;4.17406100;2023-06-14T08:27:02;8.65;;;3.85;;
9799;SDS011;4939;52.00085300;4.17406100;2023-06-14T08:29:28;9.55;;;3.63;;
9799;SDS011;4939;52.00085300;4.17406100;2023-06-14T08:31:55;11.70;;;3.88;;
9799;SDS011;4939;52.00085300;4.17406100;2023-06-14T08:34:21;8.38;;;3.75;;
9799;SDS011;4939;52.00085300;4.17406100;2023-06-14T08:36:48;6.32;;;3.33;;
9799;SDS011;4939;52.00085300;4.17406100;2023-06-14T08:39:17;12.32;;;4.38;;
9799;SDS011;4939;52.00085300;4.17406100;2023-06-14T08:41:43;8.85;;;3.80;;
9799;SDS011;4939;52.00085300;4.17406100;2023-06-14T08:44:11;7.05;;;3.85;;
9799;SDS011;4939;52.00085300;4.17406100;2023-06-14T08:46:37;12.65;;;4.30;;
9799;SDS011;4939;52.00085300;4.17406100;2023-06-14T08:49:03;6.10;;;3.53;;
9799;SDS011;4939;52.00085300;4.17406100;2023-06-14T08:51:31;4.82;;;3.60;;
9799;SDS011;4939;52.00085300;4.17406100;2023-06-14T08:54:01;8.88;;;4.00;;
9799;SDS011;4939;52.00085300;4.17406100;2023-06-14T08:56:29;9.43;;;3.90;;
9799;SDS011;4939;52.00085300;4.17406100;2023-06-14T08:58:56;7.60;;;3.65;;
9799;SDS011;4939;52.00085300;4.17406100;2023-06-14T09:01:26;6.03;;;3.50;;
9799;SDS011;4939;52.00085300;4.17406100;2023-06-14T09:03:52;6.03;;;3.60;;
9799;SDS011;4939;52.00085300;4.17406100;2023-06-14T09:06:20;8.57;;;3.53;;
9799;SDS011;4939;52.00085300;4.17406100;2023-06-14T09:08:48;9.07;;;4.20;;
9799;SDS011;4939;52.00085300;4.17406100;2023-06-14T09:11:15;7.10;;;3.75;;
9799;SDS011;4939;52.00085300;4.17406100;2023-06-14T09:13:43;7.53;;;3.30;;
9799;SDS011;4939;52.00085300;4.17406100;2023-06-14T09:16:13;7.07;;;3.35;;
9799;SDS011;4939;52.00085300;4.17406100;2023-06-14T09:18:42;9.55;;;3.40;;
9799;SDS011;4939;52.00085300;4.17406100;2023-06-14T09:21:10;7.53;;;3.30;;
9799;SDS011;4939;52.00085300;4.17406100;2023-06-14T09:23:37;6.10;;;3.30;;
9799;SDS011;4939;52.00085300;4.17406100;2023-06-14T09:26:10;5.72;;;3.50;;
9799;SDS011;4939;52.00085300;4.17406100;2023-06-14T09:28:40;13.57;;;3.78;;
9799;SDS011;4939;52.00085300;4.17406100;2023-06-14T09:31:07;7.10;;;3.45;;
9799;SDS011;4939;52.00085300;4.17406100;2023-06-14T09:33:34;9.10;;;3.60;;
9799;SDS011;4939;52.00085300;4.17406100;2023-06-14T09:36:00;6.50;;;3.30;;
9799;SDS011;4939;52.00085300;4.17406100;2023-06-14T09:38:26;7.55;;;3.67;;
9799;SDS011;4939;52.00085300;4.17406100;2023-06-14T09:40:51;9.65;;;3.80;;
9799;SDS011;4939;52.00085300;4.17406100;2023-06-14T09:43:17;5.80;;;3.35;;
9799;SDS011;4939;52.00085300;4.17406100;2023-06-14T09:45:44;8.13;;;3.38;;
9799;SDS011;4939;52.00085300;4.17406100;2023-06-14T09:48:13;12.52;;;3.17;;
9799;SDS011;4939;52.00085300;4.17406100;2023-06-14T09:50:43;9.13;;;3.17;;
9799;SDS011;4939;52.00085300;4.17406100;2023-06-14T09:53:11;6.38;;;3.10;;
9799;SDS011;4939;52.00085300;4.17406100;2023-06-14T09:55:38;7.10;;;3.30;;
9799;SDS011;4939;52.00085300;4.17406100;2023-06-14T09:58:07;7.25;;;2.90;;
9799;SDS011;4939;52.00085300;4.17406100;2023-06-14T10:00:33;4.55;;;2.80;;
9799;SDS011;4939;52.00085300;4.17406100;2023-06-14T10:03:03;11.52;;;3.30;;
9799;SDS011;4939;52.00085300;4.17406100;2023-06-14T10:05:37;7.28;;;3.17;;
9799;SDS011;4939;52.00085300;4.17406100;2023-06-14T10:08:05;7.30;;;3.20;;
9799;SDS011;4939;52.00085300;4.17406100;2023-06-14T10:10:33;6.22;;;2.88;;
9799;SDS011;4939;52.00085300;4.17406100;2023-06-14T10:12:59;8.18;;;3.05;;
9799;SDS011;4939;52.00085300;4.17406100;2023-06-14T10:15:37;8.82;;;3.40;;
9799;SDS011;4939;52.00085300;4.17406100;2023-06-14T10:21:08;7.88;;;3.20;;
9799;SDS011;4939;52.00085300;4.17406100;2023-06-14T10:23:45;7.43;;;2.80;;
9799;SDS011;4939;52.00085300;4.17406100;2023-06-14T10:26:20;8.07;;;2.90;;
9799;SDS011;4939;52.00085300;4.17406100;2023-06-14T10:28:59;10.82;;;2.88;;
9799;SDS011;4939;52.00085300;4.17406100;2023-06-14T10:31:46;5.13;;;2.83;;
9799;SDS011;4939;52.00085300;4.17406100;2023-06-14T10:34:20;8.70;;;3.03;;
9799;SDS011;4939;52.00085300;4.17406100;2023-06-14T10:39:28;5.72;;;2.90;;
9799;SDS011;4939;52.00085300;4.17406100;2023-06-14T10:41:54;4.47;;;2.80;;
9799;SDS011;4939;52.00085300;4.17406100;2023-06-14T10:46:47;6.32;;;2.63;;
9799;SDS011;4939;52.00085300;4.17406100;2023-06-14T10:49:36;5.53;;;2.55;;
9799;SDS011;4939;52.00085300;4.17406100;2023-06-14T10:52:06;4.07;;;2.50;;
9799;SDS011;4939;52.00085300;4.17406100;2023-06-14T10:57:55;5.55;;;2.72;;
9799;SDS011;4939;52.00085300;4.17406100;2023-06-14T11:00:22;4.25;;;2.40;;
9799;SDS011;4939;52.00085300;4.17406100;2023-06-14T11:02:51;8.57;;;2.72;;
9799;SDS011;4939;52.00085300;4.17406100;2023-06-14T11:05:49;4.47;;;2.50;;
9799;SDS011;4939;52.00085300;4.17406100;2023-06-14T11:11:21;5.07;;;2.42;;
9799;SDS011;4939;52.00085300;4.17406100;2023-06-14T11:13:48;10.32;;;3.13;;
9799;SDS011;4939;52.00085300;4.17406100;2023-06-14T11:16:15;5.97;;;2.40;;
9799;SDS011;4939;52.00085300;4.17406100;2023-06-14T11:18:46;7.15;;;2.47;;
9799;SDS011;4939;52.00085300;4.17406100;2023-06-14T11:21:17;7.82;;;2.38;;
9799;SDS011;4939;52.00085300;4.17406100;2023-06-14T11:23:48;6.38;;;2.20;;
9799;SDS011;4939;52.00085300;4.17406100;2023-06-14T11:26:27;4.22;;;2.60;;
9799;SDS011;4939;52.00085300;4.17406100;2023-06-14T11:28:55;7.53;;;2.75;;
9799;SDS011;4939;52.00085300;4.17406100;2023-06-14T11:31:22;2.65;;;1.95;;
9799;SDS011;4939;52.00085300;4.17406100;2023-06-14T11:33:53;2.85;;;2.30;;
9799;SDS011;4939;52.00085300;4.17406100;2023-06-14T11:36:23;4.93;;;2.00;;
9799;SDS011;4939;52.00085300;4.17406100;2023-06-14T11:38:58;5.78;;;2.05;;
9799;SDS011;4939;52.00085300;4.17406100;2023-06-14T11:41:25;3.42;;;2.30;;
9799;SDS011;4939;52.00085300;4.17406100;2023-06-14T11:43:54;7.47;;;2.90;;
9799;SDS011;4939;52.00085300;4.17406100;2023-06-14T11:46:20;5.18;;;2.47;;
9799;SDS011;4939;52.00085300;4.17406100;2023-06-14T11:48:49;3.63;;;2.25;;
9799;SDS011;4939;52.00085300;4.17406100;2023-06-14T11:51:14;4.18;;;2.20;;
9799;SDS011;4939;52.00085300;4.17406100;2023-06-14T11:53:40;3.80;;;2.42;;
9799;SDS011;4939;52.00085300;4.17406100;2023-06-14T11:56:08;4.78;;;2.10;;
9799;SDS011;4939;52.00085300;4.17406100;2023-06-14T11:58:34;6.95;;;2.20;;
9799;SDS011;4939;52.00085300;4.17406100;2023-06-14T12:00:59;4.10;;;2.40;;
9799;SDS011;4939;52.00085300;4.17406100;2023-06-14T12:03:28;3.05;;;2.05;;
9799;SDS011;4939;52.00085300;4.17406100;2023-06-14T12:06:04;4.25;;;2.13;;
9799;SDS011;4939;52.00085300;4.17406100;2023-06-14T12:08:36;4.57;;;2.60;;
9799;SDS011;4939;52.00085300;4.17406100;2023-06-14T12:11:10;8.45;;;2.00;;
9799;SDS011;4939;52.00085300;4.17406100;2023-06-14T12:13:41;5.65;;;2.17;;
9799;SDS011;4939;52.00085300;4.17406100;2023-06-14T12:16:08;4.90;;;1.95;;
9799;SDS011;4939;52.00085300;4.17406100;2023-06-14T12:18:34;5.38;;;2.10;;
9799;SDS011;4939;52.00085300;4.17406100;2023-06-14T12:21:02;3.72;;;1.88;;
9799;SDS011;4939;52.00085300;4.17406100;2023-06-14T12:23:53;3.60;;;1.90;;
9799;SDS011;4939;52.00085300;4.17406100;2023-06-14T12:26:19;6.32;;;2.58;;
9799;SDS011;4939;52.00085300;4.17406100;2023-06-14T12:28:46;3.58;;;2.05;;
9799;SDS011;4939;52.00085300;4.17406100;2023-06-14T12:31:13;6.30;;;1.90;;
9799;SDS011;4939;52.00085300;4.17406100;2023-06-14T12:33:40;5.70;;;2.45;;
9799;SDS011;4939;52.00085300;4.17406100;2023-06-14T12:36:06;3.97;;;1.60;;
9799;SDS011;4939;52.00085300;4.17406100;2023-06-14T12:38:34;4.60;;;1.67;;
9799;SDS011;4939;52.00085300;4.17406100;2023-06-14T12:41:00;5.38;;;2.00;;
9799;SDS011;4939;52.00085300;4.17406100;2023-06-14T12:43:26;4.25;;;1.77;;
9799;SDS011;4939;52.00085300;4.17406100;2023-06-14T12:45:52;4.65;;;1.70;;
9799;SDS011;4939;52.00085300;4.17406100;2023-06-14T12:48:18;4.00;;;1.70;;
9799;SDS011;4939;52.00085300;4.17406100;2023-06-14T12:50:44;3.20;;;1.70;;
9799;SDS011;4939;52.00085300;4.17406100;2023-06-14T12:53:09;3.95;;;1.67;;
9799;SDS011;4939;52.00085300;4.17406100;2023-06-14T12:55:37;2.90;;;1.45;;
9799;SDS011;4939;52.00085300;4.17406100;2023-06-14T12:58:02;2.33;;;1.58;;
9799;SDS011;4939;52.00085300;4.17406100;2023-06-14T13:00:34;4.25;;;1.65;;
9799;SDS011;4939;52.00085300;4.17406100;2023-06-14T13:03:00;2.85;;;1.60;;
9799;SDS011;4939;52.00085300;4.17406100;2023-06-14T13:05:31;2.10;;;1.40;;
9799;SDS011;4939;52.00085300;4.17406100;2023-06-14T13:07:58;4.13;;;1.50;;
9799;SDS011;4939;52.00085300;4.17406100;2023-06-14T13:10:25;4.65;;;1.70;;
9799;SDS011;4939;52.00085300;4.17406100;2023-06-14T13:12:52;5.70;;;1.80;;
9799;SDS011;4939;52.00085300;4.17406100;2023-06-14T13:15:17;2.72;;;1.55;;
9799;SDS011;4939;52.00085300;4.17406100;2023-06-14T13:17:43;2.28;;;1.58;;
9799;SDS011;4939;52.00085300;4.17406100;2023-06-14T13:20:13;2.83;;;1.40;;
9799;SDS011;4939;52.00085300;4.17406100;2023-06-14T13:22:41;55.38;;;6.50;;
9799;SDS011;4939;52.00085300;4.17406100;2023-06-14T13:25:08;9.68;;;2.08;;
9799;SDS011;4939;52.00085300;4.17406100;2023-06-14T13:27:36;10.20;;;1.95;;
9799;SDS011;4939;52.00085300;4.17406100;2023-06-14T13:30:02;4.03;;;1.80;;